sensor_id;sensor_type;location;lat;lon;timestamp;pressure;altitude;pressure_sealevel;temperature;humidity
37304;BME280;23188;51.188;16.374;2022-11-10T00:01:06;100278.39;;;12.22;100.00
37304;BME280;23188;51.188;16.374;2022-11-10T00:05:10;100282.29;;;12.18;100.00
37304;BME280;23188;51.188;16.374;2022-11-10T00:09:12;100283.38;;;12.21;100.00
37304;BME280;23188;51.188;16.374;2022-11-10T00:13:14;100289.41;;;12.23;100.00
37304;BME280;23188;51.188;16.374;2022-11-10T00:17:15;100288.50;;;12.28;100.00
37304;BME280;23188;51.188;16.374;2022-11-10T00:21:17;100285.77;;;12.24;100.00
37304;BME280;23188;51.188;16.374;2022-11-10T00:25:18;100297.06;;;12.22;100.00
37304;BME280;23188;51.188;16.374;2022-11-10T00:29:21;100299.73;;;12.22;100.00
37304;BME280;23188;51.188;16.374;2022-11-10T00:33:22;100294.39;;;12.22;100.00
37304;BME280;23188;51.188;16.374;2022-11-10T00:37:24;100297.69;;;12.20;100.00
37304;BME280;23188;51.188;16.374;2022-11-10T00:41:25;100297.23;;;12.14;100.00
37304;BME280;23188;51.188;16.374;2022-11-10T00:45:26;100301.52;;;12.11;100.00
37304;BME280;23188;51.188;16.374;2022-11-10T00:49:28;100300.88;;;12.13;100.00
37304;BME280;23188;51.188;16.374;2022-11-10T00:53:29;100307.78;;;12.16;100.00
37304;BME280;23188;51.188;16.374;2022-11-10T00:57:31;100313.70;;;12.20;100.00
37304;BME280;23188;51.188;16.374;2022-11-10T01:01:32;100313.86;;;12.12;100.00
37304;BME280;23188;51.188;16.374;2022-11-10T01:05:37;100312.80;;;12.09;100.00
37304;BME280;23188;51.188;16.374;2022-11-10T01:09:38;100319.47;;;12.09;100.00
37304;BME280;23188;51.188;16.374;2022-11-10T01:13:41;100315.00;;;12.10;100.00
37304;BME280;23188;51.188;16.374;2022-11-10T01:17:43;100320.09;;;12.07;100.00
37304;BME280;23188;51.188;16.374;2022-11-10T01:21:44;100317.43;;;12.07;100.00
37304;BME280;23188;51.188;16.374;2022-11-10T01:25:45;100319.39;;;12.05;100.00
37304;BME280;23188;51.188;16.374;2022-11-10T01:29:46;100317.08;;;12.06;100.00
37304;BME280;23188;51.188;16.374;2022-11-10T01:33:48;100315.23;;;12.07;100.00
37304;BME280;23188;51.188;16.374;2022-11-10T01:37:52;100321.16;;;12.10;100.00
37304;BME280;23188;51.188;16.374;2022-11-10T01:41:53;100321.51;;;12.11;100.00
37304;BME280;23188;51.188;16.374;2022-11-10T01:50:04;100319.82;;;12.10;100.00
37304;BME280;23188;51.188;16.374;2022-11-10T01:54:08;100315.00;;;12.10;100.00
37304;BME280;23188;51.188;16.374;2022-11-10T01:58:11;100304.73;;;12.05;100.00
37304;BME280;23188;51.188;16.374;2022-11-10T02:02:21;100316.49;;;12.03;100.00
37304;BME280;23188;51.188;16.374;2022-11-10T02:06:29;100319.91;;;11.99;100.00
37304;BME280;23188;51.188;16.374;2022-11-10T02:10:33;100329.08;;;12.00;100.00
37304;BME280;23188;51.188;16.374;2022-11-10T02:14:34;100332.02;;;12.03;100.00
37304;BME280;23188;51.188;16.374;2022-11-10T02:18:36;100342.67;;;12.03;100.00
37304;BME280;23188;51.188;16.374;2022-11-10T02:22:38;100341.97;;;12.01;100.00
37304;BME280;23188;51.188;16.374;2022-11-10T02:26:46;100345.90;;;12.07;100.00
37304;BME280;23188;51.188;16.374;2022-11-10T02:30:52;100346.13;;;12.09;100.00
37304;BME280;23188;51.188;16.374;2022-11-10T02:34:54;100357.23;;;12.14;100.00
37304;BME280;23188;51.188;16.374;2022-11-10T02:38:55;100361.81;;;12.18;100.00
37304;BME280;23188;51.188;16.374;2022-11-10T02:42:56;100369.42;;;12.23;100.00
37304;BME280;23188;51.188;16.374;2022-11-10T02:46:57;100375.89;;;12.30;100.00
37304;BME280;23188;51.188;16.374;2022-11-10T02:50:59;100376.44;;;12.39;100.00
37304;BME280;23188;51.188;16.374;2022-11-10T02:55:00;100387.88;;;12.46;100.00
37304;BME280;23188;51.188;16.374;2022-11-10T02:59:02;100393.48;;;12.58;100.00
37304;BME280;23188;51.188;16.374;2022-11-10T03:03:04;100394.94;;;12.56;100.00
37304;BME280;23188;51.188;16.374;2022-11-10T03:07:06;100387.64;;;12.59;100.00
37304;BME280;23188;51.188;16.374;2022-11-10T03:11:07;100387.91;;;12.55;100.00
37304;BME280;23188;51.188;16.374;2022-11-10T03:15:09;100392.59;;;12.48;100.00
37304;BME280;23188;51.188;16.374;2022-11-10T03:19:10;100398.36;;;12.53;100.00
37304;BME280;23188;51.188;16.374;2022-11-10T03:23:12;100397.58;;;12.47;100.00
37304;BME280;23188;51.188;16.374;2022-11-10T03:27:13;100400.24;;;12.47;100.00
37304;BME280;23188;51.188;16.374;2022-11-10T03:31:14;100404.59;;;12.48;100.00
37304;BME280;23188;51.188;16.374;2022-11-10T03:35:16;100413.30;;;12.50;100.00
37304;BME280;23188;51.188;16.374;2022-11-10T03:39:20;100420.41;;;12.55;100.00
37304;BME280;23188;51.188;16.374;2022-11-10T03:43:23;100422.67;;;12.60;100.00
37304;BME280;23188;51.188;16.374;2022-11-10T03:47:25;100419.18;;;12.59;100.00
37304;BME280;23188;51.188;16.374;2022-11-10T03:51:27;100426.00;;;12.67;100.00
37304;BME280;23188;51.188;16.374;2022-11-10T03:55:28;100428.00;;;12.75;100.00
37304;BME280;23188;51.188;16.374;2022-11-10T03:59:29;100419.00;;;12.76;100.00
37304;BME280;23188;51.188;16.374;2022-11-10T04:03:31;100421.72;;;12.70;100.00
37304;BME280;23188;51.188;16.374;2022-11-10T04:07:33;100426.63;;;12.65;100.00
37304;BME280;23188;51.188;16.374;2022-11-10T04:11:53;100432.09;;;12.64;100.00
37304;BME280;23188;51.188;16.374;2022-11-10T04:16:12;100432.95;;;12.64;100.00
37304;BME280;23188;51.188;16.374;2022-11-10T04:20:14;100445.31;;;12.65;100.00
37304;BME280;23188;51.188;16.374;2022-11-10T04:24:15;100456.34;;;12.66;100.00
37304;BME280;23188;51.188;16.374;2022-11-10T04:28:17;100467.30;;;12.63;100.00
37304;BME280;23188;51.188;16.374;2022-11-10T04:32:18;100472.91;;;12.60;100.00
37304;BME280;23188;51.188;16.374;2022-11-10T04:36:21;100486.99;;;12.56;100.00
37304;BME280;23188;51.188;16.374;2022-11-10T04:40:24;100487.73;;;12.53;100.00
37304;BME280;23188;51.188;16.374;2022-11-10T04:44:25;100495.89;;;12.51;100.00
37304;BME280;23188;51.188;16.374;2022-11-10T04:48:27;100498.84;;;12.48;100.00
37304;BME280;23188;51.188;16.374;2022-11-10T04:52:28;100508.42;;;12.30;100.00
37304;BME280;23188;51.188;16.374;2022-11-10T04:56:30;100499.30;;;12.32;100.00
37304;BME280;23188;51.188;16.374;2022-11-10T05:00:32;100505.84;;;12.34;100.00
37304;BME280;23188;51.188;16.374;2022-11-10T05:04:33;100512.01;;;12.34;100.00
37304;BME280;23188;51.188;16.374;2022-11-10T05:08:35;100522.20;;;12.35;100.00
37304;BME280;23188;51.188;16.374;2022-11-10T05:12:40;100524.99;;;12.33;100.00
37304;BME280;23188;51.188;16.374;2022-11-10T05:16:41;100528.64;;;12.32;100.00
37304;BME280;23188;51.188;16.374;2022-11-10T05:20:43;100532.55;;;12.28;100.00
37304;BME280;23188;51.188;16.374;2022-11-10T05:24:44;100541.77;;;12.30;100.00
37304;BME280;23188;51.188;16.374;2022-11-10T05:28:45;100544.19;;;12.27;100.00
37304;BME280;23188;51.188;16.374;2022-11-10T05:32:47;100551.22;;;12.28;100.00
37304;BME280;23188;51.188;16.374;2022-11-10T05:36:48;100554.42;;;12.22;100.00
37304;BME280;23188;51.188;16.374;2022-11-10T05:40:49;100554.44;;;12.16;100.00
37304;BME280;23188;51.188;16.374;2022-11-10T05:44:51;100559.08;;;12.08;100.00
37304;BME280;23188;51.188;16.374;2022-11-10T05:48:52;100564.17;;;12.06;100.00
37304;BME280;23188;51.188;16.374;2022-11-10T05:52:54;100572.42;;;11.97;100.00
37304;BME280;23188;51.188;16.374;2022-11-10T05:56:56;100579.70;;;11.95;100.00
37304;BME280;23188;51.188;16.374;2022-11-10T06:00:57;100592.48;;;11.85;100.00
37304;BME280;23188;51.188;16.374;2022-11-10T06:04:58;100601.22;;;11.76;100.00
37304;BME280;23188;51.188;16.374;2022-11-10T06:09:00;100606.23;;;11.69;100.00
37304;BME280;23188;51.188;16.374;2022-11-10T06:13:02;100614.70;;;11.63;100.00
37304;BME280;23188;51.188;16.374;2022-11-10T06:17:03;100622.84;;;11.56;100.00
37304;BME280;23188;51.188;16.374;2022-11-10T06:21:05;100633.39;;;11.46;100.00
37304;BME280;23188;51.188;16.374;2022-11-10T06:25:07;100642.82;;;11.39;100.00
37304;BME280;23188;51.188;16.374;2022-11-10T06:29:10;100657.25;;;11.36;100.00
37304;BME280;23188;51.188;16.374;2022-11-10T06:33:11;100664.63;;;11.33;100.00
37304;BME280;23188;51.188;16.374;2022-11-10T06:37:12;100666.20;;;11.29;100.00
37304;BME280;23188;51.188;16.374;2022-11-10T06:41:14;100674.09;;;11.31;100.00
37304;BME280;23188;51.188;16.374;2022-11-10T06:45:15;100678.80;;;11.27;100.00
37304;BME280;23188;51.188;16.374;2022-11-10T06:49:17;100689.70;;;11.24;100.00
37304;BME280;23188;51.188;16.374;2022-11-10T06:53:18;100692.47;;;11.23;100.00
37304;BME280;23188;51.188;16.374;2022-11-10T06:57:20;100699.73;;;11.21;100.00
37304;BME280;23188;51.188;16.374;2022-11-10T07:01:21;100710.36;;;11.15;100.00
37304;BME280;23188;51.188;16.374;2022-11-10T07:05:24;100709.89;;;11.10;100.00
37304;BME280;23188;51.188;16.374;2022-11-10T07:09:25;100724.28;;;11.13;100.00
37304;BME280;23188;51.188;16.374;2022-11-10T07:13:27;100726.70;;;11.16;100.00
37304;BME280;23188;51.188;16.374;2022-11-10T07:17:28;100739.31;;;11.20;100.00
37304;BME280;23188;51.188;16.374;2022-11-10T07:21:29;100746.59;;;11.23;100.00
37304;BME280;23188;51.188;16.374;2022-11-10T07:25:32;100744.65;;;11.25;100.00
37304;BME280;23188;51.188;16.374;2022-11-10T07:29:35;100753.73;;;11.28;100.00
37304;BME280;23188;51.188;16.374;2022-11-10T07:33:36;100756.86;;;11.28;100.00
37304;BME280;23188;51.188;16.374;2022-11-10T07:37:38;100770.33;;;11.32;100.00
37304;BME280;23188;51.188;16.374;2022-11-10T07:41:39;100772.02;;;11.33;100.00
37304;BME280;23188;51.188;16.374;2022-11-10T07:45:40;100777.11;;;11.36;100.00
37304;BME280;23188;51.188;16.374;2022-11-10T07:49:42;100778.66;;;11.39;100.00
37304;BME280;23188;51.188;16.374;2022-11-10T07:53:43;100788.63;;;11.54;100.00
37304;BME280;23188;51.188;16.374;2022-11-10T07:57:45;100786.80;;;11.77;100.00
37304;BME280;23188;51.188;16.374;2022-11-10T08:01:46;100802.23;;;12.02;100.00
37304;BME280;23188;51.188;16.374;2022-11-10T08:05:47;100805.84;;;12.24;100.00
37304;BME280;23188;51.188;16.374;2022-11-10T08:09:49;100808.70;;;12.43;100.00
37304;BME280;23188;51.188;16.374;2022-11-10T08:13:50;100823.47;;;12.59;100.00
37304;BME280;23188;51.188;16.374;2022-11-10T08:18:06;100832.77;;;12.65;100.00
37304;BME280;23188;51.188;16.374;2022-11-10T08:22:10;100831.66;;;12.79;100.00
37304;BME280;23188;51.188;16.374;2022-11-10T08:26:11;100835.97;;;12.85;100.00
37304;BME280;23188;51.188;16.374;2022-11-10T08:30:15;100842.88;;;12.94;100.00
37304;BME280;23188;51.188;16.374;2022-11-10T08:34:16;100857.19;;;12.98;100.00
37304;BME280;23188;51.188;16.374;2022-11-10T08:38:19;100860.31;;;13.04;100.00
37304;BME280;23188;51.188;16.374;2022-11-10T08:42:22;100871.09;;;13.08;100.00
37304;BME280;23188;51.188;16.374;2022-11-10T08:46:23;100873.75;;;13.13;100.00
37304;BME280;23188;51.188;16.374;2022-11-10T08:50:25;100882.14;;;13.09;100.00
37304;BME280;23188;51.188;16.374;2022-11-10T08:54:27;100888.45;;;13.08;100.00
37304;BME280;23188;51.188;16.374;2022-11-10T08:58:28;100894.42;;;13.06;100.00
37304;BME280;23188;51.188;16.374;2022-11-10T09:02:29;100898.98;;;13.15;100.00
37304;BME280;23188;51.188;16.374;2022-11-10T09:06:33;100905.25;;;13.31;100.00
37304;BME280;23188;51.188;16.374;2022-11-10T09:10:37;100899.11;;;13.40;100.00
37304;BME280;23188;51.188;16.374;2022-11-10T09:14:40;100909.55;;;13.49;100.00
37304;BME280;23188;51.188;16.374;2022-11-10T09:18:41;100924.77;;;13.64;100.00
37304;BME280;23188;51.188;16.374;2022-11-10T09:22:42;100923.77;;;13.71;100.00
37304;BME280;23188;51.188;16.374;2022-11-10T09:26:44;100938.61;;;13.69;97.09
37304;BME280;23188;51.188;16.374;2022-11-10T09:30:49;100947.02;;;13.65;95.00
37304;BME280;23188;51.188;16.374;2022-11-10T09:34:51;100946.73;;;13.74;95.17
37304;BME280;23188;51.188;16.374;2022-11-10T09:38:52;100957.12;;;13.82;97.29
37304;BME280;23188;51.188;16.374;2022-11-10T09:42:55;100952.11;;;13.89;96.76
37304;BME280;23188;51.188;16.374;2022-11-10T09:47:13;100947.33;;;13.93;95.66
37304;BME280;23188;51.188;16.374;2022-11-10T09:51:29;100947.92;;;13.96;95.72
37304;BME280;23188;51.188;16.374;2022-11-10T09:55:50;100959.71;;;14.15;95.84
37304;BME280;23188;51.188;16.374;2022-11-10T09:59:53;100963.53;;;14.22;95.74
37304;BME280;23188;51.188;16.374;2022-11-10T10:04:09;100950.48;;;14.29;93.98
37304;BME280;23188;51.188;16.374;2022-11-10T10:08:10;100957.98;;;14.20;95.39
37304;BME280;23188;51.188;16.374;2022-11-10T10:17:02;100958.13;;;14.12;92.11
37304;BME280;23188;51.188;16.374;2022-11-10T10:25:43;100976.78;;;14.08;93.96
37304;BME280;23188;51.188;16.374;2022-11-10T10:29:46;100984.00;;;14.02;91.98
37304;BME280;23188;51.188;16.374;2022-11-10T10:33:49;100985.34;;;14.02;93.83
37304;BME280;23188;51.188;16.374;2022-11-10T10:37:55;100983.61;;;13.85;91.85
37304;BME280;23188;51.188;16.374;2022-11-10T10:41:57;100991.45;;;13.93;95.10
37304;BME280;23188;51.188;16.374;2022-11-10T10:46:10;100990.89;;;13.89;92.85
37304;BME280;23188;51.188;16.374;2022-11-10T10:54:34;100985.89;;;13.90;93.73
37304;BME280;23188;51.188;16.374;2022-11-10T10:58:51;100994.61;;;13.98;93.85
37304;BME280;23188;51.188;16.374;2022-11-10T11:03:02;100989.88;;;13.96;94.10
37304;BME280;23188;51.188;16.374;2022-11-10T11:07:21;100989.08;;;14.05;92.30
37304;BME280;23188;51.188;16.374;2022-11-10T11:11:27;100999.42;;;14.04;93.05
37304;BME280;23188;51.188;16.374;2022-11-10T11:15:32;100985.30;;;14.23;96.90
37304;BME280;23188;51.188;16.374;2022-11-10T11:19:35;100992.23;;;14.26;94.53
37304;BME280;23188;51.188;16.374;2022-11-10T11:28:15;100985.34;;;14.33;92.86
37304;BME280;23188;51.188;16.374;2022-11-10T11:37:17;100991.14;;;14.54;93.96
37304;BME280;23188;51.188;16.374;2022-11-10T11:41:41;101000.52;;;14.54;90.66
37304;BME280;23188;51.188;16.374;2022-11-10T11:46:10;101014.36;;;14.43;89.54
37304;BME280;23188;51.188;16.374;2022-11-10T11:50:36;101018.00;;;14.27;90.57
37304;BME280;23188;51.188;16.374;2022-11-10T11:55:02;101034.92;;;14.27;90.98
37304;BME280;23188;51.188;16.374;2022-11-10T11:59:37;101035.39;;;14.27;88.16
37304;BME280;23188;51.188;16.374;2022-11-10T12:08:15;101026.69;;;14.19;93.19
37304;BME280;23188;51.188;16.374;2022-11-10T12:12:34;101032.44;;;13.93;88.60
37304;BME280;23188;51.188;16.374;2022-11-10T12:16:52;101035.94;;;13.94;91.23
37304;BME280;23188;51.188;16.374;2022-11-10T12:25:33;101022.22;;;14.14;89.59
37304;BME280;23188;51.188;16.374;2022-11-10T12:29:56;101031.38;;;14.27;90.78
37304;BME280;23188;51.188;16.374;2022-11-10T12:34:03;101044.76;;;14.27;91.65
37304;BME280;23188;51.188;16.374;2022-11-10T12:38:12;101046.98;;;14.22;89.07
37304;BME280;23188;51.188;16.374;2022-11-10T12:42:19;101045.88;;;14.03;88.46
37304;BME280;23188;51.188;16.374;2022-11-10T12:46:21;101050.52;;;14.01;87.53
37304;BME280;23188;51.188;16.374;2022-11-10T12:54:52;101070.19;;;13.73;88.08
37304;BME280;23188;51.188;16.374;2022-11-10T12:59:13;101080.48;;;13.56;90.38
37304;BME280;23188;51.188;16.374;2022-11-10T13:03:28;101077.67;;;13.52;91.28
37304;BME280;23188;51.188;16.374;2022-11-10T13:07:31;101069.29;;;13.51;90.12
37304;BME280;23188;51.188;16.374;2022-11-10T13:11:36;101066.77;;;13.50;90.21
37304;BME280;23188;51.188;16.374;2022-11-10T13:15:44;101083.77;;;13.49;89.42
37304;BME280;23188;51.188;16.374;2022-11-10T13:19:49;101075.36;;;13.53;90.29
37304;BME280;23188;51.188;16.374;2022-11-10T13:28:08;101090.05;;;13.53;91.20
37304;BME280;23188;51.188;16.374;2022-11-10T13:36:38;101095.36;;;13.76;91.14
37304;BME280;23188;51.188;16.374;2022-11-10T13:40:43;101108.16;;;13.94;92.31
37304;BME280;23188;51.188;16.374;2022-11-10T13:44:45;101110.59;;;13.97;90.74
37304;BME280;23188;51.188;16.374;2022-11-10T13:49:10;101120.77;;;14.09;92.16
37304;BME280;23188;51.188;16.374;2022-11-10T13:58:06;101114.14;;;14.19;92.98
37304;BME280;23188;51.188;16.374;2022-11-10T14:06:50;101135.91;;;14.20;91.63
37304;BME280;23188;51.188;16.374;2022-11-10T14:10:59;101138.84;;;14.17;91.25
37304;BME280;23188;51.188;16.374;2022-11-10T14:15:21;101138.23;;;14.19;91.07
37304;BME280;23188;51.188;16.374;2022-11-10T14:19:40;101143.09;;;14.13;90.34
37304;BME280;23188;51.188;16.374;2022-11-10T14:32:30;101151.66;;;14.02;90.06
37304;BME280;23188;51.188;16.374;2022-11-10T14:36:32;101159.83;;;14.00;89.94
37304;BME280;23188;51.188;16.374;2022-11-10T14:40:39;101164.32;;;13.94;90.17
37304;BME280;23188;51.188;16.374;2022-11-10T14:44:40;101170.70;;;13.81;90.48
37304;BME280;23188;51.188;16.374;2022-11-10T14:48:42;101175.33;;;13.68;90.78
37304;BME280;23188;51.188;16.374;2022-11-10T14:52:46;101182.88;;;13.57;91.07
37304;BME280;23188;51.188;16.374;2022-11-10T14:56:49;101188.12;;;13.47;91.72
37304;BME280;23188;51.188;16.374;2022-11-10T15:00:51;101200.72;;;13.34;92.30
37304;BME280;23188;51.188;16.374;2022-11-10T15:04:52;101194.30;;;13.19;93.00
37304;BME280;23188;51.188;16.374;2022-11-10T15:08:54;101203.63;;;13.08;93.28
37304;BME280;23188;51.188;16.374;2022-11-10T15:13:04;101211.39;;;12.99;93.17
37304;BME280;23188;51.188;16.374;2022-11-10T15:17:12;101220.60;;;12.90;93.16
37304;BME280;23188;51.188;16.374;2022-11-10T15:21:16;101222.63;;;12.80;93.21
37304;BME280;23188;51.188;16.374;2022-11-10T15:25:22;101226.25;;;12.68;93.65
37304;BME280;23188;51.188;16.374;2022-11-10T15:29:27;101238.84;;;12.60;93.80
37304;BME280;23188;51.188;16.374;2022-11-10T15:33:32;101250.33;;;12.49;94.09
37304;BME280;23188;51.188;16.374;2022-11-10T15:37:35;101246.89;;;12.41;94.46
37304;BME280;23188;51.188;16.374;2022-11-10T15:41:41;101248.45;;;12.38;94.45
37304;BME280;23188;51.188;16.374;2022-11-10T15:45:46;101263.83;;;12.35;93.94
37304;BME280;23188;51.188;16.374;2022-11-10T15:49:50;101266.70;;;12.26;93.77
37304;BME280;23188;51.188;16.374;2022-11-10T15:53:52;101271.48;;;12.15;93.94
37304;BME280;23188;51.188;16.374;2022-11-10T15:57:54;101289.00;;;12.06;94.10
37304;BME280;23188;51.188;16.374;2022-11-10T16:01:55;101304.19;;;11.98;94.60
37304;BME280;23188;51.188;16.374;2022-11-10T16:05:57;101308.36;;;11.90;94.55
37304;BME280;23188;51.188;16.374;2022-11-10T16:09:58;101314.73;;;11.81;94.61
37304;BME280;23188;51.188;16.374;2022-11-10T16:14:01;101324.16;;;11.80;95.09
37304;BME280;23188;51.188;16.374;2022-11-10T16:18:12;101321.22;;;11.77;94.68
37304;BME280;23188;51.188;16.374;2022-11-10T16:22:16;101339.63;;;11.75;94.26
37304;BME280;23188;51.188;16.374;2022-11-10T16:26:21;101353.05;;;11.73;94.20
37304;BME280;23188;51.188;16.374;2022-11-10T16:30:23;101348.22;;;11.73;93.48
37304;BME280;23188;51.188;16.374;2022-11-10T16:34:25;101347.34;;;11.72;92.79
37304;BME280;23188;51.188;16.374;2022-11-10T16:38:28;101356.16;;;11.67;92.39
37304;BME280;23188;51.188;16.374;2022-11-10T16:42:30;101354.08;;;11.65;93.54
37304;BME280;23188;51.188;16.374;2022-11-10T16:46:33;101371.62;;;11.62;93.83
37304;BME280;23188;51.188;16.374;2022-11-10T16:50:36;101384.73;;;11.65;94.49
37304;BME280;23188;51.188;16.374;2022-11-10T16:54:37;101380.88;;;11.69;95.51
37304;BME280;23188;51.188;16.374;2022-11-10T16:58:39;101391.98;;;11.76;96.60
37304;BME280;23188;51.188;16.374;2022-11-10T17:02:41;101395.08;;;11.82;97.02
37304;BME280;23188;51.188;16.374;2022-11-10T17:06:44;101398.11;;;11.83;97.62
37304;BME280;23188;51.188;16.374;2022-11-10T17:10:46;101401.30;;;11.89;97.62
37304;BME280;23188;51.188;16.374;2022-11-10T17:14:48;101400.72;;;11.91;97.81
37304;BME280;23188;51.188;16.374;2022-11-10T17:18:50;101395.06;;;11.95;97.80
37304;BME280;23188;51.188;16.374;2022-11-10T17:22:52;101396.09;;;12.00;97.47
37304;BME280;23188;51.188;16.374;2022-11-10T17:26:54;101398.75;;;12.00;97.10
37304;BME280;23188;51.188;16.374;2022-11-10T17:30:56;101391.72;;;11.99;97.16
37304;BME280;23188;51.188;16.374;2022-11-10T17:34:57;101390.20;;;11.95;97.97
37304;BME280;23188;51.188;16.374;2022-11-10T17:38:59;101392.13;;;11.93;99.07
37304;BME280;23188;51.188;16.374;2022-11-10T17:43:01;101380.87;;;11.95;99.53
37304;BME280;23188;51.188;16.374;2022-11-10T17:47:02;101373.14;;;11.97;99.41
37304;BME280;23188;51.188;16.374;2022-11-10T17:51:10;101375.16;;;12.01;99.58
37304;BME280;23188;51.188;16.374;2022-11-10T17:55:25;101381.01;;;12.06;99.67
37304;BME280;23188;51.188;16.374;2022-11-10T17:59:24;101384.47;;;12.14;99.46
37304;BME280;23188;51.188;16.374;2022-11-10T18:03:26;101387.06;;;12.21;99.06
37304;BME280;23188;51.188;16.374;2022-11-10T18:07:30;101394.52;;;12.29;98.34
37304;BME280;23188;51.188;16.374;2022-11-10T18:11:32;101395.84;;;12.29;97.34
37304;BME280;23188;51.188;16.374;2022-11-10T18:15:34;101404.72;;;12.30;96.38
37304;BME280;23188;51.188;16.374;2022-11-10T18:19:36;101406.42;;;12.31;95.95
37304;BME280;23188;51.188;16.374;2022-11-10T18:23:37;101411.12;;;12.27;94.96
37304;BME280;23188;51.188;16.374;2022-11-10T18:27:39;101419.81;;;12.23;94.57
37304;BME280;23188;51.188;16.374;2022-11-10T18:31:40;101430.42;;;12.18;93.60
37304;BME280;23188;51.188;16.374;2022-11-10T18:35:42;101436.27;;;12.04;93.71
37304;BME280;23188;51.188;16.374;2022-11-10T18:39:44;101429.95;;;11.92;93.54
37304;BME280;23188;51.188;16.374;2022-11-10T18:43:45;101431.96;;;11.76;94.11
37304;BME280;23188;51.188;16.374;2022-11-10T18:47:47;101438.41;;;11.66;94.77
37304;BME280;23188;51.188;16.374;2022-11-10T18:51:51;101443.45;;;11.63;95.22
37304;BME280;23188;51.188;16.374;2022-11-10T18:55:54;101439.58;;;11.62;95.38
37304;BME280;23188;51.188;16.374;2022-11-10T18:59:55;101442.17;;;11.56;95.09
37304;BME280;23188;51.188;16.374;2022-11-10T19:03:58;101446.77;;;11.47;95.41
37304;BME280;23188;51.188;16.374;2022-11-10T19:07:59;101454.14;;;11.43;95.28
37304;BME280;23188;51.188;16.374;2022-11-10T19:12:02;101452.23;;;11.38;95.32
37304;BME280;23188;51.188;16.374;2022-11-10T19:16:08;101461.38;;;11.41;95.42
37304;BME280;23188;51.188;16.374;2022-11-10T19:20:12;101472.79;;;11.43;94.90
37304;BME280;23188;51.188;16.374;2022-11-10T19:24:15;101476.80;;;11.36;93.78
37304;BME280;23188;51.188;16.374;2022-11-10T19:28:18;101475.20;;;11.33;94.47
37304;BME280;23188;51.188;16.374;2022-11-10T19:32:19;101482.13;;;11.36;95.33
37304;BME280;23188;51.188;16.374;2022-11-10T19:36:22;101476.59;;;11.39;96.08
37304;BME280;23188;51.188;16.374;2022-11-10T19:40:26;101481.92;;;11.39;97.01
37304;BME280;23188;51.188;16.374;2022-11-10T19:44:27;101484.03;;;11.41;97.52
37304;BME280;23188;51.188;16.374;2022-11-10T19:48:31;101491.39;;;11.50;98.29
37304;BME280;23188;51.188;16.374;2022-11-10T19:52:33;101500.12;;;11.60;98.72
37304;BME280;23188;51.188;16.374;2022-11-10T19:56:35;101499.58;;;11.67;98.61
37304;BME280;23188;51.188;16.374;2022-11-10T20:00:36;101503.94;;;11.76;99.07
37304;BME280;23188;51.188;16.374;2022-11-10T20:04:38;101514.33;;;11.86;99.03
37304;BME280;23188;51.188;16.374;2022-11-10T20:08:42;101510.20;;;12.02;98.89
37304;BME280;23188;51.188;16.374;2022-11-10T20:12:45;101508.59;;;12.12;97.96
37304;BME280;23188;51.188;16.374;2022-11-10T20:16:46;101506.45;;;12.18;97.32
37304;BME280;23188;51.188;16.374;2022-11-10T20:20:48;101503.31;;;12.18;96.55
37304;BME280;23188;51.188;16.374;2022-11-10T20:24:50;101502.72;;;12.20;96.02
37304;BME280;23188;51.188;16.374;2022-11-10T20:28:52;101496.92;;;12.21;95.30
37304;BME280;23188;51.188;16.374;2022-11-10T20:32:54;101492.58;;;12.12;94.54
37304;BME280;23188;51.188;16.374;2022-11-10T20:36:55;101500.15;;;12.06;94.64
37304;BME280;23188;51.188;16.374;2022-11-10T20:41:01;101503.31;;;11.98;94.58
37304;BME280;23188;51.188;16.374;2022-11-10T20:45:05;101514.62;;;11.89;94.58
37304;BME280;23188;51.188;16.374;2022-11-10T20:49:07;101524.58;;;11.79;94.73
37304;BME280;23188;51.188;16.374;2022-11-10T20:53:09;101528.81;;;11.69;95.08
37304;BME280;23188;51.188;16.374;2022-11-10T20:57:11;101523.23;;;11.59;95.43
37304;BME280;23188;51.188;16.374;2022-11-10T21:01:13;101514.13;;;11.49;95.92
37304;BME280;23188;51.188;16.374;2022-11-10T21:05:15;101515.63;;;11.40;96.43
37304;BME280;23188;51.188;16.374;2022-11-10T21:09:17;101530.66;;;11.34;96.64
37304;BME280;23188;51.188;16.374;2022-11-10T21:13:20;101531.06;;;11.27;96.80
37304;BME280;23188;51.188;16.374;2022-11-10T21:17:22;101515.75;;;11.24;96.54
37304;BME280;23188;51.188;16.374;2022-11-10T21:21:26;101505.80;;;11.20;96.22
37304;BME280;23188;51.188;16.374;2022-11-10T21:25:29;101502.18;;;11.14;96.28
37304;BME280;23188;51.188;16.374;2022-11-10T21:29:30;101511.70;;;11.11;96.61
37304;BME280;23188;51.188;16.374;2022-11-10T21:33:32;101507.53;;;11.07;96.60
37304;BME280;23188;51.188;16.374;2022-11-10T21:37:33;101514.39;;;11.04;96.44
37304;BME280;23188;51.188;16.374;2022-11-10T21:41:34;101513.44;;;10.97;96.10
37304;BME280;23188;51.188;16.374;2022-11-10T21:45:35;101510.12;;;10.86;96.01
37304;BME280;23188;51.188;16.374;2022-11-10T21:49:37;101500.08;;;10.77;96.13
37304;BME280;23188;51.188;16.374;2022-11-10T21:53:38;101501.52;;;10.68;96.00
37304;BME280;23188;51.188;16.374;2022-11-10T21:57:41;101510.66;;;10.64;96.25